Terminal Aerodrome Forecast
Issued by NWS Mt. Holly, NJ

Home | Current Version | Previous Version | Text Only | Print | Product List | Glossary On
Versions: 1 2 3 4 5 6 7 8 9 10 11 12 13 14 15 16 17 18 19 20
134
FTUS41 KPHI 292340
TAFACY
TAF
KACY 292340Z 3000/3024 VRB03KT P6SM SKC
      TEMPO 3008/3011 5SM BR
     FM301200 VRB03KT P6SM FEW040 BKN150 PROB30 3019/3023 -SHRA
      BKN040=

USA.gov is the U.S. government's official web portal to all federal, state and local government web resources and services.